createdAt,value
2023-02-11T00:00:51.499Z,99620.84
2023-02-11T00:03:38.694Z,99702.91
2023-02-11T00:06:25.534Z,99764.06
2023-02-11T00:09:11.429Z,99653.66
2023-02-11T00:11:56.921Z,99754.47
2023-02-11T00:14:42.260Z,99776.78
2023-02-11T00:17:27.843Z,99571.50
2023-02-11T00:20:13.188Z,99561.53
2023-02-11T00:22:58.889Z,99771.41
2023-02-11T00:25:45.521Z,99589.72
2023-02-11T00:28:31.114Z,99758.59
2023-02-11T00:31:19.089Z,99616.88
2023-02-11T00:34:04.573Z,99612.69
2023-02-11T00:36:51.961Z,99769.53
2023-02-11T00:39:38.121Z,99595.47
2023-02-11T00:42:24.436Z,99758.88
2023-02-11T00:45:09.970Z,99596.31
2023-02-11T00:47:55.672Z,99751.25
2023-02-11T00:50:40.941Z,99721.34
2023-02-11T00:53:26.752Z,99698.84
2023-02-11T00:56:12.504Z,99721.16
2023-02-11T00:58:58.120Z,99525.84
2023-02-11T01:01:44.137Z,99713.16
2023-02-11T01:04:30.064Z,99719.66
2023-02-11T01:07:15.380Z,99704.53
2023-02-11T01:10:00.939Z,99513.91
2023-02-11T01:12:48.454Z,99696.41
2023-02-11T01:15:34.181Z,99683.50
2023-02-11T01:18:20.091Z,99678.00
2023-02-11T01:21:07.768Z,99526.91
2023-02-11T01:23:53.177Z,99671.63
2023-02-11T01:26:39.381Z,99695.13
2023-02-11T01:29:24.989Z,99480.72
2023-02-11T01:32:13.950Z,99451.03
2023-02-11T01:34:59.808Z,99641.88
2023-02-11T01:37:45.814Z,99633.69
2023-02-11T01:40:31.497Z,99636.59
2023-02-11T01:43:17.451Z,99512.66
2023-02-11T01:46:23.401Z,99652.72
2023-02-11T01:49:15.082Z,99652.25
2023-02-11T01:52:07.109Z,99476.75
2023-02-11T01:55:14.377Z,99620.44
2023-02-11T01:58:05.053Z,99607.94
2023-02-11T02:00:51.043Z,99631.97
2023-02-11T02:03:40.998Z,99645.03
2023-02-11T02:06:34.454Z,99539.09
2023-02-11T02:09:28.109Z,99635.25
2023-02-11T02:12:13.730Z,99444.94
2023-02-11T02:15:37.055Z,99638.47
2023-02-11T02:18:31.257Z,99638.47
2023-02-11T02:21:48.331Z,99649.78
2023-02-11T02:24:49.203Z,99652.03
2023-02-11T02:27:55.838Z,99631.88
2023-02-11T02:31:03.463Z,99625.88
2023-02-11T02:34:06.662Z,99642.47
2023-02-11T02:37:08.232Z,99653.88
2023-02-11T02:39:53.827Z,99620.56
2023-02-11T02:42:41.355Z,99457.06
2023-02-11T02:45:27.206Z,99618.38
2023-02-11T02:48:29.380Z,99622.88
2023-02-11T02:51:53.523Z,99614.44
2023-02-11T02:55:08.780Z,99652.25
2023-02-11T02:58:23.812Z,99617.06
2023-02-11T03:01:22.667Z,99624.50
2023-02-11T03:04:22.801Z,99613.06
2023-02-11T03:07:41.611Z,99463.81
2023-02-11T03:10:34.329Z,99638.84
2023-02-11T03:13:24.713Z,99609.28
2023-02-11T03:16:15.129Z,99608.28
2023-02-11T03:19:06.017Z,99617.16
2023-02-11T03:21:53.516Z,99596.56
2023-02-11T03:24:41.295Z,99609.72
2023-02-11T03:27:36.184Z,99626.84
2023-02-11T03:30:28.522Z,99594.50
2023-02-11T03:33:52.676Z,99603.16
2023-02-11T03:36:38.684Z,99598.72
2023-02-11T03:39:30.094Z,99620.81
2023-02-11T03:42:16.686Z,99585.56
2023-02-11T03:45:09.606Z,99572.75
2023-02-11T03:48:01.812Z,99604.28
2023-02-11T03:50:50.077Z,99594.34
2023-02-11T03:53:38.253Z,99411.03
2023-02-11T03:56:29.521Z,99578.75
2023-02-11T03:59:14.865Z,99614.84
2023-02-11T04:02:00.595Z,99464.00
2023-02-11T04:04:47.116Z,99614.50
2023-02-11T04:07:32.669Z,99575.19
2023-02-11T04:10:18.737Z,99426.09
2023-02-11T04:13:04.246Z,99562.75
2023-02-11T04:15:49.633Z,99538.88
2023-02-11T04:18:34.972Z,99549.56
2023-02-11T04:21:20.479Z,99525.38
2023-02-11T04:24:05.980Z,99553.97
2023-02-11T04:26:51.630Z,99376.13
2023-02-11T04:29:36.929Z,99330.53
2023-02-11T04:32:22.418Z,99521.72
2023-02-11T04:35:07.976Z,99519.84
2023-02-11T04:37:54.270Z,99352.25
2023-02-11T04:40:40.232Z,99481.88
2023-02-11T04:43:25.686Z,99506.44
2023-02-11T04:46:11.079Z,99502.50
2023-02-11T04:48:57.205Z,99497.88
2023-02-11T04:51:46.508Z,99488.97
2023-02-11T04:54:33.487Z,99302.28
2023-02-11T04:57:19.118Z,99439.88
2023-02-11T05:00:05.996Z,99498.28
2023-02-11T05:02:51.534Z,99481.91
2023-02-11T05:05:41.364Z,99471.78
2023-02-11T05:08:26.664Z,99483.81
2023-02-11T05:11:20.823Z,99463.13
2023-02-11T05:14:07.238Z,99295.19
2023-02-11T05:16:52.682Z,99426.09
2023-02-11T05:19:38.610Z,99399.47
2023-02-11T05:22:24.032Z,99457.69
2023-02-11T05:25:09.602Z,99258.09
2023-02-11T05:27:55.094Z,99231.19
2023-02-11T05:30:40.635Z,99439.28
2023-02-11T05:33:25.992Z,99421.84
2023-02-11T05:36:13.542Z,99263.72
2023-02-11T05:38:59.020Z,99352.53
2023-02-11T05:41:44.372Z,99437.59
2023-02-11T05:44:29.862Z,99437.09
2023-02-11T05:47:15.231Z,99431.94
2023-02-11T05:50:00.845Z,99437.59
2023-02-11T05:52:46.724Z,99447.84
2023-02-11T05:55:32.479Z,99435.88
2023-02-11T05:58:18.501Z,99443.81
2023-02-11T06:01:03.732Z,99247.53
2023-02-11T06:03:51.212Z,99438.75
2023-02-11T06:06:36.876Z,99289.91
2023-02-11T06:09:22.340Z,99451.50
2023-02-11T06:12:07.890Z,99458.22
2023-02-11T06:14:53.567Z,99236.34
2023-02-11T06:17:38.866Z,99447.91
2023-02-11T06:20:24.281Z,99442.75
2023-02-11T06:23:10.243Z,99225.63
2023-02-11T06:25:55.823Z,99278.66
2023-02-11T06:28:42.112Z,99417.97
2023-02-11T06:31:28.310Z,99412.75
2023-02-11T06:34:14.026Z,99411.09
2023-02-11T06:36:59.469Z,99432.44
2023-02-11T06:39:45.409Z,99393.91
2023-02-11T06:42:30.939Z,99396.56
2023-02-11T06:45:16.518Z,99311.53
2023-02-11T06:48:02.081Z,99173.03
2023-02-11T06:50:47.740Z,99375.22
2023-02-11T06:53:37.100Z,99339.22
2023-02-11T06:56:24.478Z,99304.28
2023-02-11T06:59:16.480Z,99334.31
2023-02-11T07:02:03.660Z,99314.03
2023-02-11T07:04:49.542Z,99121.03
2023-02-11T07:07:35.755Z,99217.31
2023-02-11T07:10:21.143Z,99295.09
2023-02-11T07:13:06.667Z,99341.41
2023-02-11T07:15:52.674Z,99352.59
2023-02-11T07:18:38.819Z,99300.13
2023-02-11T07:21:24.699Z,99165.22
2023-02-11T07:24:11.338Z,99328.88
2023-02-11T07:26:57.028Z,99157.91
2023-02-11T07:29:43.520Z,99277.78
2023-02-11T07:32:29.482Z,99313.22
2023-02-11T07:35:15.991Z,99316.19
2023-02-11T07:38:01.556Z,99317.00
2023-02-11T07:40:47.060Z,99309.72
2023-02-11T07:43:34.202Z,99259.94
2023-02-11T07:46:23.313Z,99304.03
2023-02-11T07:49:09.250Z,99301.28
2023-02-11T07:51:55.097Z,99154.34
2023-02-11T07:54:40.796Z,99304.63
2023-02-11T07:57:26.020Z,99318.97
2023-02-11T08:00:12.203Z,99275.31
2023-02-11T08:02:58.204Z,99291.78
2023-02-11T08:05:46.539Z,99254.22
2023-02-11T08:08:38.452Z,99126.38
2023-02-11T08:11:28.800Z,99270.66
2023-02-11T08:14:14.822Z,99277.63
2023-02-11T08:17:00.636Z,99083.91
2023-02-11T08:19:46.034Z,99249.25
2023-02-11T08:22:33.454Z,99282.72
2023-02-11T08:25:20.575Z,99251.47
2023-02-11T08:28:06.152Z,99272.13
2023-02-11T08:30:51.705Z,99290.56
2023-02-11T08:33:38.204Z,99061.63
2023-02-11T08:36:29.538Z,99284.50
2023-02-11T08:39:21.062Z,99121.03
2023-02-11T08:42:06.544Z,99086.69
2023-02-11T08:44:51.816Z,99266.47
2023-02-11T08:47:42.080Z,99274.50
2023-02-11T08:50:28.455Z,99089.28
2023-02-11T08:53:14.200Z,99071.44
2023-02-11T08:55:59.513Z,99244.66
2023-02-11T08:58:49.224Z,99106.25
2023-02-11T09:01:36.839Z,99251.81
2023-02-11T09:04:36.399Z,99225.63
2023-02-11T09:07:32.515Z,99271.19
2023-02-11T09:10:18.931Z,99055.53
2023-02-11T09:13:05.078Z,99279.56
2023-02-11T09:15:50.928Z,99295.50
2023-02-11T09:18:37.182Z,99245.81
2023-02-11T09:21:25.398Z,98828.81
2023-02-11T09:24:12.142Z,99200.59
2023-02-11T09:26:58.095Z,99255.13
2023-02-11T09:29:50.058Z,99235.16
2023-02-11T09:32:39.519Z,99235.72
2023-02-11T09:35:25.405Z,99139.16
2023-02-11T09:38:11.503Z,99241.34
2023-02-11T09:40:57.082Z,99216.94
2023-02-11T09:43:48.239Z,99226.44
2023-02-11T09:46:41.821Z,99058.69
2023-02-11T09:49:50.527Z,99042.53
2023-02-11T09:52:57.516Z,99195.16
2023-02-11T09:55:46.717Z,99177.72
2023-02-11T09:58:38.624Z,99188.44
2023-02-11T10:01:45.404Z,99160.81
2023-02-11T10:04:51.194Z,99165.31
2023-02-11T10:07:43.529Z,99152.91
2023-02-11T10:10:41.873Z,99138.72
2023-02-11T10:13:42.646Z,99130.22
2023-02-11T10:16:37.647Z,99121.97
2023-02-11T10:19:41.231Z,99108.03
2023-02-11T10:22:37.806Z,99100.59
2023-02-11T10:25:29.786Z,99105.50
2023-02-11T10:28:21.247Z,99094.25
2023-02-11T10:31:11.852Z,99114.94
2023-02-11T10:34:10.291Z,99089.50
2023-02-11T10:36:55.966Z,99068.63
2023-02-11T10:39:41.718Z,99072.06
2023-02-11T10:42:27.955Z,99067.13
2023-02-11T10:45:30.544Z,99108.16
2023-02-11T10:48:55.129Z,99069.50
2023-02-11T10:51:40.907Z,99068.97
2023-02-11T10:54:26.612Z,99042.84
2023-02-11T10:57:20.072Z,99025.66
2023-02-11T11:00:22.891Z,98911.75
2023-02-11T11:03:21.202Z,99047.25
2023-02-11T11:06:09.992Z,99012.59
2023-02-11T11:08:55.995Z,98987.78
2023-02-11T11:11:53.630Z,99015.56
2023-02-11T11:14:39.307Z,99007.34
2023-02-11T11:17:30.528Z,98791.31
2023-02-11T11:20:22.811Z,98996.34
2023-02-11T11:23:20.247Z,98951.91
2023-02-11T11:26:13.089Z,98987.81
2023-02-11T11:29:07.641Z,98952.75
2023-02-11T11:32:20.537Z,98981.94
2023-02-11T11:35:27.317Z,98972.03
2023-02-11T11:38:15.021Z,98932.22
2023-02-11T11:41:18.424Z,98772.84
2023-02-11T11:44:26.939Z,98790.19
2023-02-11T11:47:12.581Z,98958.91
2023-02-11T11:50:23.107Z,98907.03
2023-02-11T11:53:45.945Z,98945.63
2023-02-11T11:56:53.817Z,98816.03
2023-02-11T11:59:39.766Z,98728.34
2023-02-11T12:03:02.705Z,98940.28
2023-02-11T12:06:11.185Z,98961.66
2023-02-11T12:09:15.246Z,98954.09
2023-02-11T12:12:32.147Z,98742.47
2023-02-11T12:15:39.468Z,98917.97
2023-02-11T12:18:46.188Z,98929.75
2023-02-11T12:21:54.189Z,98915.56
2023-02-11T12:25:07.803Z,98906.41
2023-02-11T12:28:20.116Z,98904.03
2023-02-11T12:31:37.413Z,98888.38
2023-02-11T12:34:47.722Z,98892.13
2023-02-11T12:37:42.680Z,98889.16
2023-02-11T12:40:57.402Z,98860.19
2023-02-11T12:43:44.576Z,98896.25
2023-02-11T12:46:50.271Z,98734.56
2023-02-11T12:50:22.951Z,98897.50
2023-02-11T12:53:14.649Z,98919.94
2023-02-11T12:56:21.537Z,98896.13
2023-02-11T12:59:17.156Z,98822.44
2023-02-11T13:02:12.566Z,98888.47
2023-02-11T13:05:08.398Z,98880.78
2023-02-11T13:08:14.913Z,98677.72
2023-02-11T13:11:14.414Z,98857.41
2023-02-11T13:14:24.554Z,98868.31
2023-02-11T13:17:24.357Z,98872.69
2023-02-11T13:20:25.648Z,98869.19
2023-02-11T13:23:16.972Z,98890.09
2023-02-11T13:26:09.835Z,98845.50
2023-02-11T13:29:05.420Z,98837.84
2023-02-11T13:32:07.460Z,98784.97
2023-02-11T13:34:53.206Z,98834.22
2023-02-11T13:37:40.009Z,98849.44
2023-02-11T13:40:35.980Z,98825.28
2023-02-11T13:43:25.301Z,98809.53
2023-02-11T13:46:13.675Z,98816.38
2023-02-11T13:48:59.594Z,98836.84
2023-02-11T13:51:46.743Z,98809.63
2023-02-11T13:54:39.213Z,98824.78
2023-02-11T13:57:37.417Z,98638.09
2023-02-11T14:00:36.524Z,98837.34
2023-02-11T14:03:52.552Z,98723.88
2023-02-11T14:07:08.114Z,98815.69
2023-02-11T14:09:57.348Z,98779.84
2023-02-11T14:13:06.606Z,98808.31
2023-02-11T14:16:31.549Z,98804.88
2023-02-11T14:19:38.780Z,98767.59
2023-02-11T14:22:31.723Z,98610.97
2023-02-11T14:25:25.460Z,98825.44
2023-02-11T14:28:24.331Z,98806.22
2023-02-11T14:31:18.432Z,98782.44
2023-02-11T14:34:19.017Z,98804.25
2023-02-11T14:37:14.229Z,98650.91
2023-02-11T14:40:18.637Z,98819.88
2023-02-11T14:43:18.721Z,98796.50
2023-02-11T14:46:05.491Z,98785.13
2023-02-11T14:48:55.214Z,98811.78
2023-02-11T14:51:41.388Z,98803.38
2023-02-11T14:54:28.932Z,98790.66
2023-02-11T14:57:19.632Z,98795.13
2023-02-11T15:00:18.170Z,98792.97
2023-02-11T15:03:04.177Z,98777.53
2023-02-11T15:05:58.976Z,98807.72
2023-02-11T15:08:52.707Z,98629.13
2023-02-11T15:11:41.192Z,98778.81
2023-02-11T15:14:30.506Z,98771.59
2023-02-11T15:17:21.195Z,98757.22
2023-02-11T15:20:08.036Z,98789.84
2023-02-11T15:23:00.481Z,98732.81
2023-02-11T15:25:51.568Z,98783.59
2023-02-11T15:28:37.075Z,98590.81
2023-02-11T15:31:25.441Z,98760.31
2023-02-11T15:34:12.161Z,98580.94
2023-02-11T15:36:58.301Z,98581.69
2023-02-11T15:39:44.133Z,98785.66
2023-02-11T15:42:43.865Z,98815.53
2023-02-11T15:45:36.360Z,98782.72
2023-02-11T15:48:26.771Z,98791.09
2023-02-11T15:51:23.280Z,98786.00
2023-02-11T15:54:16.778Z,98637.03
2023-02-11T15:57:07.452Z,98782.06
2023-02-11T15:59:54.876Z,98791.94
2023-02-11T16:02:45.596Z,98777.38
2023-02-11T16:05:32.929Z,98715.25
2023-02-11T16:08:29.940Z,98780.91
2023-02-11T16:11:27.001Z,98798.44
2023-02-11T16:14:29.648Z,98803.28
2023-02-11T16:17:18.746Z,98812.75
2023-02-11T16:20:04.867Z,98783.88
2023-02-11T16:22:50.832Z,98750.00
2023-02-11T16:25:37.434Z,98658.63
2023-02-11T16:28:22.881Z,98784.19
2023-02-11T16:31:09.996Z,98749.25
2023-02-11T16:33:55.497Z,98777.16
2023-02-11T16:36:41.227Z,98771.88
2023-02-11T16:39:30.853Z,98741.41
2023-02-11T16:42:20.472Z,98775.59
2023-02-11T16:45:06.936Z,98624.56
2023-02-11T16:47:52.474Z,98767.41
2023-02-11T16:50:38.210Z,98757.41
2023-02-11T16:53:25.326Z,98568.09
2023-02-11T16:56:16.896Z,98785.75
2023-02-11T16:59:02.761Z,98774.34
2023-02-11T17:01:49.769Z,98726.69
2023-02-11T17:04:35.765Z,98699.91
2023-02-11T17:07:21.823Z,98704.22
2023-02-11T17:10:23.987Z,98740.56
2023-02-11T17:13:09.407Z,98744.84
2023-02-11T17:15:56.105Z,98760.81
2023-02-11T17:18:42.766Z,98738.88
2023-02-11T17:21:32.498Z,98747.44
2023-02-11T17:24:21.956Z,98543.59
2023-02-11T17:27:12.147Z,98779.44
2023-02-11T17:30:02.254Z,98768.69
2023-02-11T17:32:50.957Z,98574.59
2023-02-11T17:35:41.518Z,98752.34
2023-02-11T17:38:28.892Z,98539.97
2023-02-11T17:41:17.131Z,98780.75
2023-02-11T17:44:05.873Z,98763.72
2023-02-11T17:46:53.528Z,98759.72
2023-02-11T17:49:43.090Z,98774.66
2023-02-11T17:52:31.862Z,98715.53
2023-02-11T17:55:21.505Z,98750.03
2023-02-11T17:58:11.651Z,98689.16
2023-02-11T18:01:01.584Z,98738.38
2023-02-11T18:03:51.083Z,98748.53
2023-02-11T18:06:41.582Z,98571.09
2023-02-11T18:09:35.083Z,98773.63
2023-02-11T18:12:27.335Z,98728.75
2023-02-11T18:15:21.406Z,98762.47
2023-02-11T18:18:12.345Z,98552.75
2023-02-11T18:21:10.332Z,98566.81
2023-02-11T18:24:05.982Z,98747.28
2023-02-11T18:26:58.421Z,98582.44
2023-02-11T18:29:51.947Z,98736.44
2023-02-11T18:32:42.468Z,98762.75
2023-02-11T18:35:33.146Z,98715.16
2023-02-11T18:38:24.412Z,98769.28
2023-02-11T18:45:38.592Z,98758.78
2023-02-11T18:48:33.617Z,98744.63
2023-02-11T18:51:21.541Z,98722.69
2023-02-11T18:54:09.888Z,98714.53
2023-02-11T18:56:56.043Z,98760.56
2023-02-11T18:59:43.573Z,98739.16
2023-02-11T19:02:31.081Z,98548.09
2023-02-11T19:05:18.944Z,98743.25
2023-02-11T19:08:07.715Z,98726.09
2023-02-11T19:10:54.100Z,98749.88
2023-02-11T19:13:41.348Z,98732.41
2023-02-11T19:16:30.378Z,98742.91
2023-02-11T19:19:18.544Z,98547.84
2023-02-11T19:22:10.254Z,98768.53
2023-02-11T19:24:56.630Z,98733.72
2023-02-11T19:27:43.922Z,98742.38
2023-02-11T19:30:31.058Z,98734.53
2023-02-11T19:33:17.555Z,98756.41
2023-02-11T19:36:08.471Z,98560.00
2023-02-11T19:38:55.231Z,98747.50
2023-02-11T19:41:41.969Z,98761.59
2023-02-11T19:44:28.543Z,98775.75
2023-02-11T19:47:14.811Z,98770.13
2023-02-11T19:50:01.044Z,98760.56
2023-02-11T19:52:48.719Z,98763.31
2023-02-11T19:55:35.169Z,98773.56
2023-02-11T19:58:22.048Z,98755.41
2023-02-11T20:01:09.960Z,98756.91
2023-02-11T20:03:56.778Z,98715.03
2023-02-11T20:06:43.129Z,98776.34
2023-02-11T20:09:31.288Z,98761.59
2023-02-11T20:12:17.006Z,98765.41
2023-02-11T20:15:03.019Z,98750.47
2023-02-11T20:17:48.926Z,98574.16
2023-02-11T20:20:34.281Z,98758.84
2023-02-11T20:23:20.759Z,98765.09
2023-02-11T20:26:08.112Z,98721.81
2023-02-11T20:28:55.633Z,98800.91
2023-02-11T20:31:42.025Z,98732.72
2023-02-11T20:34:27.668Z,98769.94
2023-02-11T20:37:13.237Z,98745.13
2023-02-11T20:39:58.877Z,98774.13
2023-02-11T20:42:44.411Z,98762.47
2023-02-11T20:45:29.809Z,98762.47
2023-02-11T20:48:15.417Z,98787.28
2023-02-11T20:51:10.783Z,98790.28
2023-02-11T20:53:56.974Z,98775.94
2023-02-11T20:56:44.990Z,98574.75
2023-02-11T20:59:31.994Z,98768.44
2023-02-11T21:02:18.279Z,98761.94
2023-02-11T21:05:04.009Z,98783.31
2023-02-11T21:07:50.827Z,98739.91
2023-02-11T21:10:38.184Z,98751.06
2023-02-11T21:13:35.021Z,98793.22
2023-02-11T21:16:36.117Z,98792.50
2023-02-11T21:19:35.323Z,98779.84
2023-02-11T21:22:30.993Z,98745.91
2023-02-11T21:25:23.476Z,98788.53
2023-02-11T21:28:09.733Z,98619.59
2023-02-11T21:30:57.353Z,98782.09
2023-02-11T21:33:59.409Z,98776.41
2023-02-11T21:36:45.840Z,98781.88
2023-02-11T21:39:31.110Z,98794.31
2023-02-11T21:42:19.774Z,98792.56
2023-02-11T21:45:14.231Z,98788.34
2023-02-11T21:48:17.200Z,98788.34
2023-02-11T21:51:13.028Z,98796.78
2023-02-11T21:54:07.251Z,98807.00
2023-02-11T21:57:11.777Z,98812.25
2023-02-11T22:00:18.056Z,98657.56
2023-02-11T22:03:11.076Z,98779.72
2023-02-11T22:06:00.687Z,98786.94
2023-02-11T22:08:51.780Z,98812.22
2023-02-11T22:11:41.538Z,98796.59
2023-02-11T22:14:32.370Z,98820.63
2023-02-11T22:17:40.357Z,98803.47
2023-02-11T22:20:29.247Z,98775.50
2023-02-11T22:23:20.691Z,98785.97
2023-02-11T22:26:21.052Z,98626.38
2023-02-11T22:29:16.889Z,98848.03
2023-02-11T22:32:02.749Z,98657.59
2023-02-11T22:34:48.448Z,98829.88
2023-02-11T22:37:34.181Z,98686.84
2023-02-11T22:40:19.994Z,98828.63
2023-02-11T22:43:05.448Z,98824.41
2023-02-11T22:45:52.221Z,98807.03
2023-02-11T22:48:37.502Z,98798.34
2023-02-11T22:51:25.444Z,98791.16
2023-02-11T22:54:14.956Z,98822.66
2023-02-11T22:57:00.389Z,98829.09
2023-02-11T22:59:45.889Z,98636.53
2023-02-11T23:02:31.687Z,98833.88
2023-02-11T23:05:17.480Z,98837.28
2023-02-11T23:08:03.707Z,98644.44
2023-02-11T23:10:49.471Z,98824.91
2023-02-11T23:13:37.687Z,98765.41
2023-02-11T23:16:26.306Z,98733.19
2023-02-11T23:19:12.511Z,98789.22
2023-02-11T23:21:58.343Z,98839.13
2023-02-11T23:24:43.725Z,98650.94
2023-02-11T23:27:33.388Z,98859.63
2023-02-11T23:30:22.832Z,98856.16
2023-02-11T23:33:09.234Z,98858.88
2023-02-11T23:35:55.534Z,98858.88
2023-02-11T23:38:41.564Z,98814.00
2023-02-11T23:41:27.505Z,98854.91
2023-02-11T23:44:13.276Z,98830.38
2023-02-11T23:46:58.964Z,98854.44
2023-02-11T23:49:44.573Z,98857.41
2023-02-11T23:52:29.777Z,98692.28
2023-02-11T23:55:15.146Z,98839.06
2023-02-11T23:58:00.717Z,98652.16
